Time;durP1;ratioP1;P1;durP2;ratioP2;P2;SDS_P1;SDS_P2;PMS_P1;PMS_P2;Temp;Humidity;BMP_temperature;BMP_pressure;BME280_temperature;BME280_humidity;BME280_pressure;Samples;Min_cycle;Max_cycle;Signal;HPM_P1;HPM_P2
2022/06/30 00:01:52;;;;;;;15.20;11.75;;;;;;;18.44;100.00;101221.22;4911351;29;20532;-80
2022/06/30 00:04:17;;;;;;;12.73;11.38;;;;;;;18.40;100.00;101223.28;4913831;29;20075;-80
2022/06/30 00:06:43;;;;;;;14.57;11.05;;;;;;;18.38;100.00;101210.97;4899496;29;20080;-80
2022/06/30 00:09:08;;;;;;;12.63;10.40;;;;;;;18.37;100.00;101214.63;4867387;29;20036;-79
2022/06/30 00:11:34;;;;;;;12.02;10.45;;;;;;;18.37;100.00;101206.56;4913423;29;20043;-79
2022/06/30 00:13:59;;;;;;;12.07;10.80;;;;;;;18.35;100.00;101206.69;4898396;29;20048;-79
2022/06/30 00:16:25;;;;;;;13.57;10.52;;;;;;;18.33;100.00;101205.94;4915916;29;20065;-79
2022/06/30 00:18:50;;;;;;;14.50;10.40;;;;;;;18.31;100.00;101198.00;4894670;29;20039;-79
2022/06/30 00:21:16;;;;;;;11.82;10.13;;;;;;;18.30;100.00;101193.63;4910239;29;20051;-80
2022/06/30 00:23:41;;;;;;;12.68;9.88;;;;;;;18.28;100.00;101190.19;4912640;29;20051;-79
2022/06/30 00:26:07;;;;;;;12.57;9.80;;;;;;;18.27;100.00;101190.31;4912598;29;20871;-79
2022/06/30 00:28:33;;;;;;;10.63;9.35;;;;;;;18.25;100.00;101190.41;4914295;29;20067;-79
2022/06/30 00:30:58;;;;;;;10.35;8.73;;;;;;;18.24;100.00;101186.03;4895720;29;20459;-79
2022/06/30 00:33:24;;;;;;;9.50;8.45;;;;;;;18.23;100.00;101187.00;4881349;29;20047;-79
2022/06/30 00:35:52;;;;;;;9.32;8.32;;;;;;;18.23;100.00;101184.31;4913291;29;20039;-78
2022/06/30 00:38:18;;;;;;;8.82;7.93;;;;;;;18.21;100.00;101183.59;4893159;29;20048;-79
2022/06/30 00:40:45;;;;;;;9.07;8.00;;;;;;;18.21;100.00;101186.25;4914371;29;20055;-79
2022/06/30 00:43:12;;;;;;;10.48;8.10;;;;;;;18.19;100.00;101188.16;4923179;29;20231;-79
2022/06/30 00:45:41;;;;;;;8.63;7.13;;;;;;;18.17;100.00;101179.41;4915741;29;20086;-79
2022/06/30 00:48:08;;;;;;;7.93;6.68;;;;;;;18.17;100.00;101185.63;4913612;29;20074;-78
2022/06/30 00:50:34;;;;;;;7.70;6.90;;;;;;;18.15;100.00;101179.50;4914715;29;20098;-78
2022/06/30 00:53:02;;;;;;;9.98;7.63;;;;;;;18.15;100.00;101184.03;4898570;29;20059;-78
2022/06/30 00:55:29;;;;;;;6.78;5.95;;;;;;;18.14;100.00;101174.28;4897352;29;20518;-78
2022/06/30 00:57:56;;;;;;;7.55;6.03;;;;;;;18.14;100.00;101174.28;4923534;29;20538;-78
2022/06/30 01:00:23;;;;;;;7.60;6.40;;;;;;;18.17;100.00;101174.03;4903515;29;20194;-79
2022/06/30 01:02:51;;;;;;;8.43;6.40;;;;;;;18.18;100.00;101173.06;4924012;29;20130;-79
2022/06/30 01:05:18;;;;;;;8.02;6.68;;;;;;;18.19;100.00;101172.09;4900063;29;20154;-79
2022/06/30 01:07:44;;;;;;;8.80;6.07;;;;;;;18.21;100.00;101167.50;4900592;29;20047;-78
2022/06/30 01:12:54;;;;;;;7.65;6.22;;;;;;;18.21;100.00;101162.16;4915751;29;20079;-79
2022/06/30 01:15:20;;;;;;;6.63;5.93;;;;;;;18.22;100.00;101165.66;4901136;29;20661;-78
2022/06/30 01:17:48;;;;;;;8.23;6.82;;;;;;;18.19;100.00;101175.66;4887809;29;20479;-79
2022/06/30 01:20:14;;;;;;;8.77;6.68;;;;;;;18.16;100.00;101169.66;4920150;29;20127;-78
2022/06/30 01:22:40;;;;;;;9.15;6.57;;;;;;;18.15;100.00;101165.28;4922742;29;20071;-79
2022/06/30 01:25:07;;;;;;;8.15;7.00;;;;;;;18.13;100.00;101170.72;4903859;29;20055;-79
2022/06/30 01:27:33;;;;;;;8.60;6.35;;;;;;;18.14;100.00;101168.91;4905170;29;20130;-79
2022/06/30 01:29:59;;;;;;;7.53;6.35;;;;;;;18.13;100.00;101168.06;4902432;29;20114;-79
2022/06/30 01:32:25;;;;;;;8.95;6.75;;;;;;;18.13;100.00;101175.22;4920201;29;20054;-78
2022/06/30 01:34:52;;;;;;;8.40;6.53;;;;;;;18.12;100.00;101171.69;4904811;29;20134;-79
2022/06/30 01:37:18;;;;;;;6.97;6.20;;;;;;;18.11;99.90;101166.44;4902449;29;20766;-78
2022/06/30 01:39:44;;;;;;;6.90;6.18;;;;;;;18.11;99.99;101169.13;4903021;29;20043;-78
2022/06/30 01:42:09;;;;;;;7.07;5.78;;;;;;;18.09;99.73;101174.59;4916361;29;20376;-79
2022/06/30 01:44:35;;;;;;;7.57;5.72;;;;;;;18.09;99.47;101171.91;4918949;29;20099;-79
2022/06/30 01:47:01;;;;;;;6.75;5.97;;;;;;;18.10;99.21;101172.78;4905414;29;20043;-78
2022/06/30 01:49:26;;;;;;;8.02;6.38;;;;;;;18.10;99.44;101167.41;4920281;29;20506;-78
2022/06/30 01:51:52;;;;;;;8.68;6.18;;;;;;;18.09;99.56;101168.38;4905699;29;20610;-79
2022/06/30 01:54:18;;;;;;;6.85;6.13;;;;;;;18.08;99.36;101169.38;4886897;29;20056;-78
2022/06/30 01:56:44;;;;;;;6.90;6.13;;;;;;;18.05;99.42;101162.41;4919358;29;20643;-78
2022/06/30 01:59:13;;;;;;;7.82;6.32;;;;;;;18.05;99.29;101167.75;4920662;29;20040;-78
2022/06/30 02:01:39;;;;;;;8.25;6.47;;;;;;;18.02;99.50;101171.47;4906354;29;20051;-79
2022/06/30 02:06:49;;;;;;;6.75;6.00;;;;;;;18.00;99.26;101159.16;4918484;29;20043;-79
2022/06/30 02:09:15;;;;;;;7.60;6.32;;;;;;;17.97;99.04;101162.91;4904430;29;20066;-78
2022/06/30 02:11:40;;;;;;;7.65;5.97;;;;;;;17.94;99.00;101157.78;4915718;29;20043;-78
2022/06/30 02:14:06;;;;;;;7.25;5.60;;;;;;;17.91;98.66;101160.66;4921728;29;20043;-78
2022/06/30 02:16:32;;;;;;;8.15;5.80;;;;;;;17.87;98.40;101157.34;4922826;29;20051;-79
2022/06/30 02:18:57;;;;;;;7.28;5.63;;;;;;;17.84;98.47;101154.03;4915205;29;20055;-79
2022/06/30 02:21:23;;;;;;;7.93;5.65;;;;;;;17.82;98.69;101164.00;4885685;29;20462;-78
2022/06/30 02:23:51;;;;;;;6.35;5.30;;;;;;;17.77;98.41;101159.84;4918806;29;20079;-80
2022/06/30 02:26:18;;;;;;;8.10;5.70;;;;;;;17.73;98.16;101158.34;4919689;29;21446;-78
2022/06/30 02:28:43;;;;;;;7.53;5.88;;;;;;;17.72;98.06;101158.47;4918582;29;20054;-78
2022/06/30 02:31:12;;;;;;;7.00;5.85;;;;;;;17.68;97.76;101155.16;4898348;29;20784;-79
2022/06/30 02:33:39;;;;;;;6.22;4.97;;;;;;;17.67;97.89;101161.47;4903598;29;20461;-80
2022/06/30 02:36:05;;;;;;;8.70;5.60;;;;;;;17.65;97.82;101155.34;4920453;29;20082;-78
2022/06/30 02:38:30;;;;;;;5.88;5.03;;;;;;;17.61;97.70;101149.34;4917253;29;20071;-78
2022/06/30 02:40:56;;;;;;;7.32;5.13;;;;;;;17.63;98.07;101146.56;4918587;29;20043;-79
2022/06/30 02:43:22;;;;;;;5.53;4.82;;;;;;;17.61;97.76;101141.31;4919328;29;20040;-79
2022/06/30 02:45:47;;;;;;;5.40;4.80;;;;;;;17.59;98.04;101139.75;4919006;29;20032;-78
2022/06/30 02:48:13;;;;;;;5.50;4.65;;;;;;;17.58;97.76;101138.00;4921332;29;20569;-78
2022/06/30 02:50:39;;;;;;;5.63;4.80;;;;;;;17.57;97.97;101145.19;4901851;29;20044;-78
2022/06/30 02:53:04;;;;;;;8.30;4.50;;;;;;;17.56;98.20;101135.47;4920159;29;20075;-78
2022/06/30 02:55:30;;;;;;;5.00;4.38;;;;;;;17.54;97.96;101140.03;4917044;29;20035;-78
2022/06/30 02:57:55;;;;;;;4.90;4.40;;;;;;;17.54;98.10;101140.03;4897876;29;20626;-78
2022/06/30 03:00:22;;;;;;;5.93;4.50;;;;;;;17.53;98.02;101142.84;4912465;29;20078;-78
2022/06/30 03:02:47;;;;;;;5.65;4.80;;;;;;;17.50;97.90;101150.09;4898732;29;20043;-78
2022/06/30 03:05:13;;;;;;;5.15;4.40;;;;;;;17.46;98.11;101148.63;4918174;29;20055;-78
2022/06/30 03:07:39;;;;;;;5.30;4.43;;;;;;;17.45;98.18;101144.25;4912614;29;20044;-78
2022/06/30 03:10:04;;;;;;;4.50;4.10;;;;;;;17.43;98.34;101140.81;4902023;29;20072;-78
2022/06/30 03:12:30;;;;;;;5.03;4.13;;;;;;;17.41;97.85;101150.75;4914040;29;20075;-79
2022/06/30 03:14:56;;;;;;;5.00;4.43;;;;;;;17.38;98.16;101151.00;4912286;29;20047;-79
2022/06/30 03:17:21;;;;;;;6.15;4.45;;;;;;;17.36;98.15;101150.22;4919108;29;20047;-79
2022/06/30 03:19:47;;;;;;;5.22;4.40;;;;;;;17.33;97.87;101148.63;4898815;29;20050;-79
2022/06/30 03:22:12;;;;;;;5.07;4.43;;;;;;;17.31;97.90;101147.00;4895646;29;20043;-79
2022/06/30 03:24:38;;;;;;;6.32;4.20;;;;;;;17.29;97.75;101148.94;4919500;29;20040;-79
2022/06/30 03:27:04;;;;;;;4.95;4.45;;;;;;;17.24;97.63;101150.13;4895421;29;20590;-79
2022/06/30 03:29:30;;;;;;;7.85;4.35;;;;;;;17.22;97.45;101151.19;4898316;29;20051;-78
2022/06/30 03:31:56;;;;;;;5.50;4.43;;;;;;;17.19;97.43;101149.59;4899242;29;20044;-79
2022/06/30 03:34:21;;;;;;;5.75;5.05;;;;;;;17.17;97.39;101150.66;4913053;29;20179;-79
2022/06/30 03:36:47;;;;;;;5.78;4.43;;;;;;;17.14;97.54;101143.69;4916143;29;20051;-83
2022/06/30 03:39:12;;;;;;;8.10;4.90;;;;;;;17.12;97.91;101150.09;4912536;29;20043;-79
2022/06/30 03:41:38;;;;;;;4.53;3.92;;;;;;;17.11;98.28;101149.25;4898368;29;20062;-78
2022/06/30 03:44:07;;;;;;;5.47;4.55;;;;;;;17.10;98.70;101143.03;4880790;29;20043;-78
2022/06/30 03:46:33;;;;;;;5.18;4.60;;;;;;;17.11;98.65;101146.59;4906810;29;20758;-78
2022/06/30 03:48:59;;;;;;;6.20;4.65;;;;;;;17.11;98.68;101149.25;4917173;29;20455;-78
2022/06/30 03:51:25;;;;;;;5.05;4.53;;;;;;;17.09;98.65;101154.72;4898238;29;20048;-78
2022/06/30 03:53:53;;;;;;;5.53;4.68;;;;;;;17.11;98.91;101154.59;4914656;29;20044;-78
2022/06/30 03:56:19;;;;;;;8.05;4.80;;;;;;;17.13;99.37;101146.47;4896991;29;20071;-78
2022/06/30 03:58:44;;;;;;;6.15;4.75;;;;;;;17.15;99.94;101145.41;4898301;29;20162;-78
2022/06/30 04:01:10;;;;;;;5.55;4.70;;;;;;;17.18;99.89;101141.66;4914741;29;20503;-78
2022/06/30 04:03:35;;;;;;;6.65;4.90;;;;;;;17.20;100.00;101143.25;4916552;29;20154;-79
2022/06/30 04:06:01;;;;;;;7.05;4.75;;;;;;;17.21;99.55;101144.13;4916755;29;20056;-79
2022/06/30 04:08:26;;;;;;;5.53;4.47;;;;;;;17.22;99.53;101141.34;4883607;29;20058;-78
2022/06/30 04:10:52;;;;;;;5.60;4.80;;;;;;;17.23;100.00;101132.34;4918367;29;20748;-78
2022/06/30 04:13:18;;;;;;;5.43;4.70;;;;;;;17.26;99.67;101130.44;4899152;29;20056;-79
2022/06/30 04:15:43;;;;;;;6.68;4.88;;;;;;;17.27;99.75;101130.31;4916855;29;20123;-78
2022/06/30 04:18:09;;;;;;;4.80;4.30;;;;;;;17.27;99.61;101122.28;4916668;29;20103;-79
2022/06/30 04:20:34;;;;;;;5.05;4.38;;;;;;;17.29;99.42;101124.84;4905550;29;20039;-79
2022/06/30 04:23:00;;;;;;;5.47;4.75;;;;;;;17.28;99.51;101116.00;4902024;29;20063;-78
2022/06/30 04:25:25;;;;;;;5.68;4.65;;;;;;;17.29;99.38;101128.41;4886364;29;20036;-79
2022/06/30 04:27:52;;;;;;;7.22;4.90;;;;;;;17.30;99.14;101121.22;4919420;29;20075;-78
2022/06/30 04:33:06;;;;;;;5.13;4.32;;;;;;;17.33;99.88;101115.66;4919072;29;20154;-78
2022/06/30 04:35:32;;;;;;;6.38;4.40;;;;;;;17.34;100.00;101123.56;4901267;29;20058;-79
2022/06/30 04:37:59;;;;;;;4.88;4.28;;;;;;;17.37;99.79;101120.69;4900278;29;20039;-79
2022/06/30 04:43:09;;;;;;;5.78;4.78;;;;;;;17.45;100.00;101113.94;4890103;29;20134;-79
2022/06/30 04:45:34;;;;;;;5.22;4.50;;;;;;;17.47;100.00;101107.53;4904529;29;20051;-79
2022/06/30 04:48:00;;;;;;;5.30;4.78;;;;;;;17.50;99.96;101106.44;4903925;29;20447;-78
2022/06/30 04:50:25;;;;;;;6.38;4.43;;;;;;;17.52;99.90;101093.81;4882767;29;20452;-78
2022/06/30 04:52:51;;;;;;;4.93;4.05;;;;;;;17.54;100.00;101101.72;4899380;29;20038;-78
2022/06/30 04:55:16;;;;;;;4.88;4.18;;;;;;;17.55;99.74;101108.78;4916651;29;20051;-78
2022/06/30 04:57:42;;;;;;;6.00;4.70;;;;;;;17.55;99.99;101108.78;4904008;29;20039;-79
2022/06/30 05:00:08;;;;;;;5.38;4.85;;;;;;;17.58;100.00;101101.41;4919902;29;20047;-79
2022/06/30 05:02:34;;;;;;;5.15;4.43;;;;;;;17.59;99.93;101104.94;4917889;29;20040;-79
2022/06/30 05:04:59;;;;;;;5.30;4.22;;;;;;;17.58;99.34;101098.72;4898845;29;20406;-79
2022/06/30 05:07:25;;;;;;;7.60;4.57;;;;;;;17.61;99.34;101097.66;4919123;29;20106;-78
2022/06/30 05:09:51;;;;;;;7.13;4.80;;;;;;;17.65;99.55;101099.13;4917256;29;20799;-79
2022/06/30 05:12:16;;;;;;;6.25;4.53;;;;;;;17.67;99.41;101094.53;4913693;29;20043;-79
2022/06/30 05:14:42;;;;;;;6.32;4.95;;;;;;;17.72;99.45;101099.56;4901716;29;20083;-78
2022/06/30 05:17:07;;;;;;;6.22;4.45;;;;;;;17.76;99.72;101099.22;4920443;29;20044;-79
2022/06/30 05:19:33;;;;;;;5.00;4.43;;;;;;;17.82;99.71;101100.59;4903709;29;20509;-78
2022/06/30 05:21:59;;;;;;;5.05;4.55;;;;;;;17.89;99.68;101101.00;4919055;29;20051;-79
2022/06/30 05:27:09;;;;;;;6.43;4.97;;;;;;;18.05;99.62;101096.28;4916370;29;20075;-79
2022/06/30 05:29:35;;;;;;;5.50;4.35;;;;;;;18.16;99.86;101090.16;4915474;29;20206;-78
2022/06/30 05:32:01;;;;;;;5.38;4.50;;;;;;;18.27;100.00;101086.66;4898658;29;20107;-78
2022/06/30 05:34:26;;;;;;;5.80;4.55;;;;;;;18.39;99.91;101092.06;4898963;29;20044;-79
2022/06/30 05:36:52;;;;;;;6.00;4.82;;;;;;;18.49;99.07;101086.88;4919861;29;20052;-79
2022/06/30 05:39:18;;;;;;;5.50;4.78;;;;;;;18.56;98.47;101088.97;4885496;29;20043;-80
2022/06/30 05:41:43;;;;;;;4.70;4.18;;;;;;;18.66;97.94;101082.91;4896915;29;20043;-78
2022/06/30 05:44:09;;;;;;;5.70;4.20;;;;;;;18.74;98.00;101091.22;4900216;29;20071;-79
2022/06/30 05:46:54;;;;;;;5.20;4.70;;;;;;;18.86;97.77;101090.28;4899578;29;20060;-72
2022/06/30 05:49:26;;;;;;;5.05;4.47;;;;;;;19.03;97.79;101087.31;4900293;29;20071;-73
2022/06/30 05:51:52;;;;;;;5.32;4.28;;;;;;;19.16;97.56;101090.72;4916647;29;20736;-73
2022/06/30 05:54:18;;;;;;;6.32;4.90;;;;;;;19.31;97.44;101083.31;4916882;29;21236;-73
2022/06/30 05:56:43;;;;;;;5.82;4.78;;;;;;;19.48;97.10;101094.53;4887616;29;20076;-73
2022/06/30 05:59:09;;;;;;;6.63;4.50;;;;;;;19.58;96.19;101089.28;4900485;29;20035;-72
2022/06/30 06:01:35;;;;;;;5.70;4.97;;;;;;;19.71;95.46;101086.47;4914489;29;20071;-73
2022/06/30 06:04:00;;;;;;;5.85;4.57;;;;;;;19.83;95.01;101085.47;4917282;29;20717;-72
2022/06/30 06:06:26;;;;;;;5.65;4.72;;;;;;;19.93;94.32;101083.75;4918035;29;20048;-81
2022/06/30 06:08:53;;;;;;;4.68;4.18;;;;;;;20.04;93.79;101084.75;4914774;29;20043;-78
2022/06/30 06:11:18;;;;;;;5.63;4.60;;;;;;;20.17;93.46;101085.44;4904798;29;20059;-78
2022/06/30 06:13:44;;;;;;;5.68;4.70;;;;;;;20.34;93.26;101083.19;4902109;29;20612;-77
2022/06/30 06:16:10;;;;;;;6.38;5.10;;;;;;;20.48;92.74;101082.00;4916390;29;20047;-76
2022/06/30 06:18:35;;;;;;;5.80;4.35;;;;;;;20.65;92.52;101077.91;4915994;29;20636;-76
2022/06/30 06:21:01;;;;;;;4.60;4.10;;;;;;;20.82;91.75;101075.63;4913429;29;20518;-78
2022/06/30 06:23:26;;;;;;;5.53;4.90;;;;;;;20.91;91.47;101084.78;4901373;29;20574;-76
2022/06/30 06:25:52;;;;;;;5.13;4.47;;;;;;;21.03;91.29;101091.78;4887225;29;20043;-76
2022/06/30 06:31:17;;;;;;;5.90;4.68;;;;;;;21.26;89.72;101092.50;4904522;29;20044;-77
2022/06/30 06:33:44;;;;;;;6.90;4.45;;;;;;;21.37;89.79;101104.16;4913781;29;20099;-76
2022/06/30 06:36:10;;;;;;;6.57;4.88;;;;;;;21.47;89.60;101104.19;4912713;29;20051;-76
2022/06/30 06:38:35;;;;;;;5.15;4.65;;;;;;;21.57;89.44;101102.38;4915407;29;20043;-76
2022/06/30 06:41:02;;;;;;;6.15;4.68;;;;;;;21.77;89.46;101106.03;4899540;29;20042;-76
2022/06/30 06:43:28;;;;;;;6.53;4.65;;;;;;;21.91;89.18;101101.25;4886959;29;20048;-76
2022/06/30 06:45:53;;;;;;;7.07;5.20;;;;;;;22.05;88.57;101097.31;4896237;29;20036;-76
2022/06/30 06:48:19;;;;;;;7.63;5.65;;;;;;;22.17;88.15;101100.75;4915227;29;20162;-75
2022/06/30 06:50:45;;;;;;;5.50;4.72;;;;;;;22.31;88.06;101094.94;4899502;29;20110;-75
2022/06/30 06:53:10;;;;;;;5.53;4.57;;;;;;;22.48;87.64;101093.38;4897796;29;20167;-76
2022/06/30 06:55:36;;;;;;;6.70;5.18;;;;;;;22.61;87.33;101098.50;4899914;29;20415;-76
2022/06/30 06:58:02;;;;;;;6.18;5.10;;;;;;;22.76;87.11;101098.06;4897777;29;20518;-76
2022/06/30 07:00:27;;;;;;;6.20;5.07;;;;;;;22.92;87.15;101095.63;4915763;29;20055;-76
2022/06/30 07:02:56;;;;;;;6.75;5.10;;;;;;;23.12;87.10;101092.88;4899086;29;20057;-76
2022/06/30 07:05:21;;;;;;;7.30;5.35;;;;;;;23.25;85.97;101102.53;4900570;29;20591;-73
2022/06/30 07:07:58;;;;;;;6.15;5.55;;;;;;;23.36;85.40;101099.66;4898622;29;20517;-76
2022/06/30 07:10:24;;;;;;;5.95;5.15;;;;;;;23.52;85.96;101107.13;4898819;29;20274;-76
2022/06/30 07:12:50;;;;;;;6.38;5.30;;;;;;;23.68;84.91;101108.31;4881591;29;20063;-75
2022/06/30 07:15:16;;;;;;;6.03;4.90;;;;;;;23.79;84.21;101113.53;4915326;29;20055;-76
2022/06/30 07:17:42;;;;;;;5.97;5.38;;;;;;;23.82;83.95;101099.75;4894549;29;20038;-73
2022/06/30 07:20:08;;;;;;;6.13;4.70;;;;;;;23.95;84.18;101102.06;4878391;29;20039;-75
2022/06/30 07:22:34;;;;;;;6.03;4.85;;;;;;;24.13;83.28;101114.81;4896139;29;20395;-73
2022/06/30 07:25:00;;;;;;;6.40;5.47;;;;;;;24.21;83.22;101114.88;4898149;29;20675;-73
2022/06/30 07:27:37;;;;;;;6.43;5.40;;;;;;;24.35;82.36;101123.47;4912729;29;20074;-75
2022/06/30 07:30:04;;;;;;;5.93;5.13;;;;;;;24.49;82.30;101116.66;4896621;29;20051;-76
2022/06/30 07:32:29;;;;;;;6.07;5.47;;;;;;;24.55;81.53;101107.91;4898357;29;20052;-75
2022/06/30 07:34:55;;;;;;;6.63;5.57;;;;;;;24.62;81.07;101109.00;4912725;29;20553;-78
2022/06/30 07:51:52;;;;;;;6.57;5.65;;;;;;;25.26;79.68;101129.63;4921967;29;20090;-77
2022/06/30 07:54:19;;;;;;;7.45;5.90;;;;;;;25.35;78.57;101133.22;4904075;29;20079;-76
2022/06/30 07:56:45;;;;;;;8.25;6.35;;;;;;;25.38;78.43;101130.19;4911530;29;20561;-76
2022/06/30 07:59:11;;;;;;;8.20;6.53;;;;;;;25.45;78.34;101125.00;4915413;29;20050;-77
2022/06/30 08:01:36;;;;;;;11.32;6.85;;;;;;;25.57;78.04;101125.56;4915786;29;20063;-77
2022/06/30 08:04:02;;;;;;;8.55;6.95;;;;;;;25.61;76.66;101124.25;4916699;29;20421;-77
2022/06/30 08:06:28;;;;;;;9.70;6.00;;;;;;;25.65;77.00;101119.34;4914857;29;20044;-76
2022/06/30 08:08:54;;;;;;;8.05;6.68;;;;;;;25.68;76.63;101122.59;4914415;29;20137;-76
2022/06/30 08:11:19;;;;;;;8.32;7.13;;;;;;;25.79;75.58;101124.16;4902589;29;20039;-75
2022/06/30 08:13:45;;;;;;;8.77;6.53;;;;;;;25.89;76.02;101119.44;4914069;29;20078;-79
2022/06/30 08:16:11;;;;;;;8.07;6.65;;;;;;;26.02;75.38;101120.81;4915033;29;20050;-80
2022/06/30 08:18:37;;;;;;;7.80;6.47;;;;;;;26.13;75.30;101120.53;4914876;29;21484;-77
2022/06/30 08:21:03;;;;;;;7.47;6.30;;;;;;;26.14;74.67;101130.34;4914390;29;20751;-75
2022/06/30 08:23:31;;;;;;;8.63;7.05;;;;;;;26.22;74.56;101126.00;4917084;29;21026;-75
2022/06/30 08:25:57;;;;;;;8.25;6.20;;;;;;;26.28;74.54;101128.03;4913303;29;20047;-74
2022/06/30 08:28:26;;;;;;;8.68;7.57;;;;;;;26.41;73.81;101125.69;4893397;29;20051;-75
2022/06/30 08:30:52;;;;;;;9.02;6.97;;;;;;;26.50;73.53;101139.25;4904912;29;20046;-76
2022/06/30 08:33:18;;;;;;;7.80;6.90;;;;;;;26.50;73.11;101133.81;4920457;29;20044;-77
2022/06/30 08:35:43;;;;;;;8.38;6.43;;;;;;;26.61;73.00;101135.34;4914561;29;20488;-76
2022/06/30 08:38:09;;;;;;;8.32;6.97;;;;;;;26.67;72.51;101140.13;4914615;29;20043;-75
2022/06/30 08:43:23;;;;;;;8.60;7.40;;;;;;;26.96;69.58;101155.09;4920378;29;20048;-74
2022/06/30 08:45:50;;;;;;;8.07;6.82;;;;;;;26.97;69.57;101149.47;4920466;29;20107;-75
2022/06/30 08:48:15;;;;;;;8.68;7.22;;;;;;;26.98;67.75;101150.34;4917683;29;20063;-75
2022/06/30 08:50:43;;;;;;;8.27;7.38;;;;;;;27.02;69.82;101158.97;4928713;28;20281;-75
2022/06/30 08:53:09;;;;;;;9.38;6.75;;;;;;;27.07;70.42;101164.75;4927007;28;20039;-75
2022/06/30 08:55:36;;;;;;;9.60;7.97;;;;;;;27.04;68.52;101154.22;4923139;28;21494;-75
2022/06/30 08:58:07;;;;;;;8.65;6.57;;;;;;;27.17;70.18;101156.44;4936355;28;20161;-74
2022/06/30 09:00:35;;;;;;;7.43;6.63;;;;;;;27.32;69.69;101162.84;4941129;28;20035;-75
2022/06/30 09:03:02;;;;;;;9.88;7.22;;;;;;;27.37;67.79;101157.75;4906537;28;20054;-75
2022/06/30 09:05:27;;;;;;;7.82;6.80;;;;;;;27.39;69.45;101160.25;4924020;28;20039;-75
2022/06/30 09:07:53;;;;;;;7.90;7.10;;;;;;;27.44;68.17;101165.22;4919671;28;20039;-75
2022/06/30 09:10:19;;;;;;;10.43;8.20;;;;;;;27.47;69.00;101168.41;4892752;28;20043;-76
2022/06/30 09:13:01;;;;;;;9.73;8.07;;;;;;;27.49;66.58;101170.94;4934277;28;20074;-75
2022/06/30 09:15:31;;;;;;;8.95;7.50;;;;;;;27.48;66.28;101175.56;4938166;28;20042;-76
2022/06/30 09:18:01;;;;;;;11.10;8.50;;;;;;;27.39;67.11;101171.13;4920716;28;20051;-75
2022/06/30 09:20:41;;;;;;;11.52;9.50;;;;;;;27.27;63.27;101173.38;4925895;28;20051;-75
2022/06/30 09:23:27;;;;;;;10.95;8.38;;;;;;;27.20;61.71;101175.09;4918517;28;20039;-75
2022/06/30 09:26:01;;;;;;;9.90;8.55;;;;;;;27.15;63.86;101170.19;4936632;28;20254;-77
2022/06/30 09:28:46;;;;;;;10.02;8.63;;;;;;;27.05;62.25;101174.94;4918683;28;20075;-76
2022/06/30 09:31:15;;;;;;;10.68;8.68;;;;;;;27.04;64.48;101176.81;4932056;28;20749;-76
2022/06/30 09:33:44;;;;;;;10.82;9.30;;;;;;;27.04;64.64;101174.09;4937731;28;20047;-77
2022/06/30 09:36:24;;;;;;;10.98;8.80;;;;;;;27.13;64.14;101174.09;4936209;28;20048;-76
2022/06/30 09:39:06;;;;;;;11.85;9.32;;;;;;;27.14;62.16;101179.34;4905526;28;20078;-76
2022/06/30 09:41:41;;;;;;;13.15;9.60;;;;;;;27.13;64.42;101171.38;4936300;28;20038;-75
2022/06/30 09:44:18;;;;;;;12.27;9.82;;;;;;;27.20;65.36;101170.50;4938184;28;20050;-76
2022/06/30 09:46:57;;;;;;;13.88;11.02;;;;;;;27.36;63.82;101171.50;4934969;28;20091;-76
2022/06/30 09:49:34;;;;;;;11.07;9.27;;;;;;;27.51;64.45;101171.63;4933573;28;20636;-75
2022/06/30 09:52:05;;;;;;;14.45;10.60;;;;;;;27.61;64.39;101174.19;4935683;28;20102;-75
2022/06/30 09:54:35;;;;;;;14.88;12.32;;;;;;;27.58;64.14;101169.09;4914140;28;20418;-76
2022/06/30 09:57:07;;;;;;;13.90;11.25;;;;;;;27.54;64.10;101173.16;4920232;28;20039;-74
2022/06/30 09:59:36;;;;;;;11.52;9.13;;;;;;;27.52;63.73;101173.31;4929717;28;20048;-76
2022/06/30 10:02:07;;;;;;;10.82;9.60;;;;;;;27.51;63.26;101180.63;4936231;28;20470;-75
2022/06/30 10:04:54;;;;;;;11.38;9.55;;;;;;;27.41;60.83;101174.56;4937993;28;20521;-78
2022/06/30 10:07:21;;;;;;;11.85;9.23;;;;;;;27.30;62.89;101166.75;4939426;28;20043;-78
2022/06/30 10:09:49;;;;;;;10.05;8.40;;;;;;;27.20;62.70;101177.81;4939511;28;20086;-73
2022/06/30 10:12:20;;;;;;;11.60;8.63;;;;;;;27.11;62.36;101174.25;4933185;28;20729;-77
2022/06/30 10:14:47;;;;;;;11.02;8.70;;;;;;;27.03;62.38;101176.97;4920045;28;20031;-76
2022/06/30 10:17:25;;;;;;;10.55;8.63;;;;;;;26.97;60.70;101178.53;4923416;28;20059;-76
2022/06/30 10:19:52;;;;;;;10.75;7.72;;;;;;;26.94;62.41;101178.84;4936713;28;20532;-76
2022/06/30 10:22:19;;;;;;;10.07;8.07;;;;;;;26.92;62.17;101180.88;4916110;28;20050;-76
2022/06/30 10:24:46;;;;;;;9.45;7.50;;;;;;;26.93;61.98;101183.44;4921694;28;20043;-75
2022/06/30 10:27:12;;;;;;;10.80;7.32;;;;;;;26.92;61.34;101179.03;4935967;28;20122;-77
2022/06/30 10:29:40;;;;;;;9.07;7.65;;;;;;;26.84;61.77;101182.56;4930049;28;20159;-76
2022/06/30 10:32:41;;;;;;;8.82;6.85;;;;;;;26.69;61.03;101187.78;4934500;28;20055;-76
2022/06/30 10:35:22;;;;;;;8.45;6.63;;;;;;;26.78;62.12;101185.09;4929287;28;20070;-77
2022/06/30 10:37:53;;;;;;;7.88;6.97;;;;;;;26.84;62.03;101190.69;4938555;28;20043;-75
2022/06/30 10:40:30;;;;;;;8.43;6.40;;;;;;;26.72;61.42;101183.91;4936706;28;20098;-76
2022/06/30 10:42:57;;;;;;;7.43;5.85;;;;;;;26.58;61.25;101185.44;4934316;28;20051;-77
2022/06/30 10:45:26;;;;;;;10.40;7.43;;;;;;;26.47;61.39;101177.59;4932014;28;20525;-78
2022/06/30 10:47:59;;;;;;;10.27;7.85;;;;;;;26.41;62.39;101190.81;4934878;28;20054;-77
2022/06/30 10:50:32;;;;;;;9.20;7.68;;;;;;;26.37;63.72;101192.16;4933610;28;20132;-76
2022/06/30 10:52:58;;;;;;;8.55;6.78;;;;;;;26.46;63.93;101203.06;4938839;28;20051;-75
2022/06/30 10:55:23;;;;;;;9.23;7.53;;;;;;;26.49;63.51;101184.56;4917141;28;20043;-74
2022/06/30 10:58:06;;;;;;;7.90;6.90;;;;;;;26.51;62.98;101185.25;4934718;28;20126;-75
2022/06/30 11:01:02;;;;;;;10.80;6.88;;;;;;;26.49;62.13;101183.69;4936673;28;20093;-74
2022/06/30 11:05:57;;;;;;;8.82;6.65;;;;;;;26.49;62.93;101190.00;4937507;28;20047;-74
2022/06/30 11:11:22;;;;;;;8.88;6.53;;;;;;;26.50;62.83;101193.53;4937718;28;20051;-74
2022/06/30 11:13:48;;;;;;;8.60;5.53;;;;;;;26.44;62.55;101190.50;4934546;28;20663;-74
2022/06/30 11:16:15;;;;;;;7.65;5.90;;;;;;;26.50;62.62;101190.81;4934633;28;20140;-74
2022/06/30 11:18:41;;;;;;;6.50;5.18;;;;;;;26.40;61.03;101194.56;4936891;28;20118;-74
2022/06/30 11:21:07;;;;;;;8.52;5.68;;;;;;;26.23;61.42;101198.22;4937010;28;20093;-75
2022/06/30 11:23:38;;;;;;;9.48;6.38;;;;;;;26.11;61.07;101201.22;4938191;28;20415;-74
2022/06/30 11:28:56;;;;;;;12.68;7.25;;;;;;;26.04;62.32;101205.59;4916223;28;20039;-75
2022/06/30 11:31:34;;;;;;;9.60;7.03;;;;;;;25.87;61.11;101194.69;4934099;28;20102;-74
2022/06/30 11:34:08;;;;;;;8.05;6.25;;;;;;;25.79;61.74;101205.50;4929541;28;20640;-75
2022/06/30 11:36:35;;;;;;;8.40;6.75;;;;;;;25.75;62.14;101204.09;4938011;28;20078;-74
2022/06/30 11:39:18;;;;;;;9.05;6.45;;;;;;;25.63;61.49;101209.81;4935575;28;20046;-74
2022/06/30 11:41:55;;;;;;;8.52;6.47;;;;;;;25.62;62.13;101202.69;4935424;28;20273;-74
2022/06/30 11:44:24;;;;;;;8.68;6.32;;;;;;;25.51;62.18;101205.66;4920345;28;20336;-74
2022/06/30 11:47:10;;;;;;;8.10;4.95;;;;;;;25.47;62.54;101201.53;4900674;28;20094;-74
2022/06/30 11:49:45;;;;;;;6.03;5.28;;;;;;;25.48;61.70;101205.94;4922871;28;20054;-77
2022/06/30 11:52:22;;;;;;;6.07;5.35;;;;;;;25.43;61.97;101202.88;4944221;28;20082;-75
2022/06/30 11:54:56;;;;;;;6.60;5.32;;;;;;;25.45;62.63;101214.41;4927289;28;20525;-76
2022/06/30 11:57:24;;;;;;;5.63;4.70;;;;;;;25.52;62.51;101207.38;4934615;28;20178;-74
2022/06/30 11:59:55;;;;;;;7.40;5.45;;;;;;;25.53;62.82;101209.06;4939950;28;20035;-74
2022/06/30 12:02:21;;;;;;;7.07;6.00;;;;;;;25.50;62.49;101212.91;4942953;28;20066;-74
2022/06/30 12:04:51;;;;;;;8.23;6.18;;;;;;;25.45;62.91;101211.69;4924322;28;20047;-75
2022/06/30 12:07:18;;;;;;;8.23;6.43;;;;;;;25.43;63.55;101209.13;4922172;28;20039;-74